Time;durP1;ratioP1;P1;durP2;ratioP2;P2;SDS_P1;SDS_P2;PMS_P1;PMS_P2;Temp;Humidity;BMP_temperature;BMP_pressure;BME280_temperature;BME280_humidity;BME280_pressure;Samples;Min_cycle;Max_cycle;Signal;HPM_P1;HPM_P2
2022/03/01 00:01:58;;;;;;;17.48;7.60;;;-3.40;92.50;;;;;;4972678;28;20038;-85
2022/03/01 00:04:24;;;;;;;16.15;7.43;;;-3.40;92.60;;;;;;4972709;28;20035;-87
2022/03/01 00:06:50;;;;;;;18.60;9.20;;;-3.60;92.40;;;;;;4971304;28;20026;-87
2022/03/01 00:09:16;;;;;;;18.10;7.88;;;-3.80;94.90;;;;;;4986622;28;20133;-89
2022/03/01 00:11:41;;;;;;;19.33;9.65;;;-3.90;96.10;;;;;;4972625;28;20181;-87
2022/03/01 00:14:07;;;;;;;19.00;8.93;;;-3.80;95.50;;;;;;4972607;28;20442;-88
2022/03/01 00:16:33;;;;;;;17.88;7.57;;;-3.60;95.00;;;;;;4972148;28;20027;-87
2022/03/01 00:18:59;;;;;;;21.60;9.65;;;-3.70;95.00;;;;;;4970718;28;20035;-85
2022/03/01 00:21:26;;;;;;;17.17;8.18;;;-3.60;95.50;;;;;;4965464;28;20415;-86
2022/03/01 00:23:52;;;;;;;17.83;8.65;;;-3.70;95.60;;;;;;4971827;28;20109;-86
2022/03/01 00:26:18;;;;;;;16.73;8.40;;;-3.90;95.60;;;;;;4972535;28;20097;-87
2022/03/01 00:28:44;;;;;;;15.68;7.93;;;-3.80;95.50;;;;;;4972367;28;20058;-89
2022/03/01 00:31:10;;;;;;;18.70;8.40;;;-4.00;95.80;;;;;;4985121;28;20084;-85
2022/03/01 00:33:36;;;;;;;21.17;10.43;;;-4.00;97.60;;;;;;5002106;28;20029;-87
2022/03/01 00:36:01;;;;;;;19.00;9.25;;;-3.90;96.10;;;;;;4994899;28;20152;-88
2022/03/01 00:38:27;;;;;;;21.08;8.93;;;-3.90;96.00;;;;;;5005200;28;20034;-88
2022/03/01 00:40:53;;;;;;;20.95;8.85;;;-3.80;95.90;;;;;;4997826;28;20041;-85
2022/03/01 00:43:20;;;;;;;18.70;8.73;;;-3.80;96.00;;;;;;5002509;28;20030;-88
2022/03/01 00:45:46;;;;;;;23.05;8.73;;;-3.80;96.50;;;;;;4997375;28;20053;-85
2022/03/01 00:48:11;;;;;;;17.00;8.45;;;-3.70;95.70;;;;;;4997621;28;20256;-85
2022/03/01 00:50:37;;;;;;;20.48;9.32;;;-3.90;96.10;;;;;;4993355;28;20036;-87
2022/03/01 00:53:02;;;;;;;19.55;7.72;;;-3.90;97.20;;;;;;5002432;28;20453;-85
2022/03/01 00:55:28;;;;;;;18.05;7.55;;;-3.90;97.80;;;;;;4999349;28;20114;-84
2022/03/01 00:57:54;;;;;;;21.48;8.50;;;-3.80;96.90;;;;;;4997252;28;20034;-86
2022/03/01 01:00:20;;;;;;;17.85;8.90;;;-3.80;96.70;;;;;;4990867;28;20026;-86
2022/03/01 01:02:45;;;;;;;19.90;8.55;;;-3.80;96.00;;;;;;5000741;28;20311;-87
2022/03/01 01:05:11;;;;;;;15.02;8.05;;;-3.70;96.20;;;;;;4996746;28;20111;-88
2022/03/01 01:07:37;;;;;;;23.45;8.35;;;-3.70;95.50;;;;;;5002143;28;20044;-89
2022/03/01 01:10:04;;;;;;;20.08;8.95;;;-3.60;95.70;;;;;;4992707;28;20046;-89
2022/03/01 01:12:30;;;;;;;21.55;9.32;;;-3.60;96.00;;;;;;5000877;28;20061;-79
2022/03/01 01:14:56;;;;;;;19.75;7.85;;;-3.70;95.80;;;;;;4987170;28;20473;-79
2022/03/01 01:17:21;;;;;;;20.17;8.73;;;-3.90;95.00;;;;;;5000278;28;20152;-87
2022/03/01 01:19:47;;;;;;;20.42;8.80;;;-4.10;96.80;;;;;;4994757;28;20038;-85
2022/03/01 01:24:57;;;;;;;21.55;8.05;;;-4.10;97.50;;;;;;4989154;28;20196;-85
2022/03/01 01:27:23;;;;;;;17.38;7.60;;;-4.00;96.40;;;;;;4992750;28;20030;-85
2022/03/01 01:29:48;;;;;;;17.52;8.23;;;-4.00;95.80;;;;;;4993049;28;20041;-84
2022/03/01 01:32:14;;;;;;;20.13;7.68;;;-4.00;97.00;;;;;;4993704;28;20061;-84
2022/03/01 01:34:40;;;;;;;16.52;7.70;;;-3.90;96.60;;;;;;4997867;28;20478;-86
2022/03/01 01:37:05;;;;;;;14.13;7.07;;;-3.80;96.60;;;;;;4980072;28;20043;-85
2022/03/01 01:39:31;;;;;;;18.48;7.65;;;-3.80;96.40;;;;;;4996162;28;20492;-88
2022/03/01 01:41:57;;;;;;;18.15;8.68;;;-3.70;96.20;;;;;;5000952;28;20500;-88
2022/03/01 01:44:22;;;;;;;17.95;8.40;;;-3.70;96.60;;;;;;4997768;28;20034;-86
2022/03/01 01:46:48;;;;;;;22.30;9.93;;;-3.70;96.60;;;;;;5002580;28;20034;-86
2022/03/01 01:49:14;;;;;;;24.30;8.30;;;-3.70;96.20;;;;;;4991401;28;20061;-87
2022/03/01 01:51:39;;;;;;;22.15;8.95;;;-3.70;96.20;;;;;;4998343;28;20480;-88
2022/03/01 01:54:06;;;;;;;20.08;9.18;;;-3.80;96.20;;;;;;5003307;28;20118;-85
2022/03/01 01:56:32;;;;;;;17.33;8.52;;;-4.00;97.00;;;;;;4996653;28;20038;-86
2022/03/01 01:58:58;;;;;;;17.73;7.50;;;-4.10;97.40;;;;;;4998400;28;20049;-84
2022/03/01 02:01:23;;;;;;;25.27;10.18;;;-4.00;97.80;;;;;;4994531;28;20035;-84
2022/03/01 02:03:49;;;;;;;16.58;9.77;;;-4.10;97.70;;;;;;4989729;28;20046;-90
2022/03/01 02:06:15;;;;;;;26.55;9.63;;;-4.10;98.30;;;;;;4989975;28;20037;-88
2022/03/01 02:08:41;;;;;;;22.73;10.65;;;-4.10;99.40;;;;;;4971419;28;20088;-89
2022/03/01 02:11:08;;;;;;;24.25;9.88;;;-4.10;99.30;;;;;;5005076;28;20035;-88
2022/03/01 02:13:34;;;;;;;16.30;6.53;;;-4.00;99.20;;;;;;4990195;28;20026;-87
2022/03/01 02:16:00;;;;;;;16.10;8.52;;;-4.00;98.70;;;;;;4990133;28;20040;-88
2022/03/01 02:18:26;;;;;;;20.67;10.07;;;-4.00;98.80;;;;;;4990043;28;20090;-86
2022/03/01 02:20:52;;;;;;;20.50;9.48;;;-4.10;98.30;;;;;;4988495;28;20030;-84
2022/03/01 02:23:17;;;;;;;20.13;10.02;;;-4.20;98.90;;;;;;4986038;28;20115;-88
2022/03/01 02:25:43;;;;;;;23.88;10.52;;;-4.10;99.70;;;;;;4990107;28;20037;-89
2022/03/01 02:28:09;;;;;;;18.52;9.48;;;-4.20;99.20;;;;;;4989719;28;20473;-88
2022/03/01 02:30:35;;;;;;;22.60;8.80;;;-4.30;99.90;;;;;;4988998;28;20116;-89
2022/03/01 02:33:00;;;;;;;25.75;10.75;;;-4.30;99.90;;;;;;4988416;28;20146;-85
2022/03/01 02:35:27;;;;;;;20.95;10.45;;;-4.40;99.90;;;;;;4989475;28;20209;-86
2022/03/01 02:37:53;;;;;;;23.45;10.20;;;-4.70;99.20;;;;;;4989776;28;20058;-88
2022/03/01 02:40:19;;;;;;;22.20;10.93;;;-4.80;99.90;;;;;;4989683;28;20026;-83
2022/03/01 02:42:46;;;;;;;29.77;11.43;;;-4.90;99.90;;;;;;4989830;28;20031;-86
2022/03/01 02:45:14;;;;;;;21.70;9.68;;;-5.00;99.90;;;;;;4987175;28;20033;-85
2022/03/01 02:47:41;;;;;;;21.83;9.52;;;-4.90;99.90;;;;;;4984138;28;20034;-86
2022/03/01 02:50:08;;;;;;;29.10;10.80;;;-5.00;99.90;;;;;;4986538;28;20052;-91
2022/03/01 02:52:34;;;;;;;22.45;9.10;;;-5.00;99.90;;;;;;4989815;28;20062;-88
2022/03/01 02:55:00;;;;;;;22.70;10.13;;;-5.20;99.90;;;;;;4989712;28;20088;-85
2022/03/01 02:57:27;;;;;;;20.15;10.07;;;-5.20;99.90;;;;;;4987084;28;20034;-83
2022/03/01 02:59:53;;;;;;;20.20;10.15;;;-5.00;99.90;;;;;;4985563;28;20057;-85
2022/03/01 03:02:18;;;;;;;24.05;9.90;;;-5.00;99.90;;;;;;4988585;28;20058;-84
2022/03/01 03:04:44;;;;;;;27.58;10.88;;;-4.90;99.90;;;;;;4988590;28;20493;-87
2022/03/01 03:07:11;;;;;;;25.98;11.50;;;-4.80;99.90;;;;;;4986286;28;20085;-84
2022/03/01 03:09:37;;;;;;;19.77;9.57;;;-4.90;99.90;;;;;;4989319;28;20802;-84
2022/03/01 03:12:03;;;;;;;26.05;12.52;;;-5.00;99.90;;;;;;4989529;28;20117;-87
2022/03/01 03:14:29;;;;;;;25.92;12.00;;;-5.00;99.90;;;;;;4987897;28;20038;-89
2022/03/01 03:16:55;;;;;;;35.15;13.20;;;-5.00;99.90;;;;;;4988125;28;20085;-88
2022/03/01 03:19:21;;;;;;;27.23;12.40;;;-5.20;99.90;;;;;;4988432;28;20104;-85
2022/03/01 03:21:47;;;;;;;26.90;11.93;;;-5.30;99.90;;;;;;5003533;28;20035;-86
2022/03/01 03:24:14;;;;;;;22.67;11.77;;;-5.20;99.90;;;;;;4989445;28;20358;-88
2022/03/01 03:26:39;;;;;;;25.27;11.57;;;-5.20;99.90;;;;;;4989344;28;20035;-85
2022/03/01 03:29:09;;;;;;;26.17;12.65;;;-5.20;99.90;;;;;;4980894;28;20037;-81
2022/03/01 03:31:40;;;;;;;26.95;12.63;;;-5.30;99.90;;;;;;4989850;28;20091;-86
2022/03/01 03:34:08;;;;;;;28.83;12.80;;;-5.30;99.90;;;;;;5003677;28;20109;-89
2022/03/01 03:36:34;;;;;;;24.95;13.25;;;-5.40;99.90;;;;;;4995861;28;20041;-87
2022/03/01 03:39:03;;;;;;;25.65;11.90;;;-5.50;99.90;;;;;;4996587;28;20405;-89
2022/03/01 03:41:29;;;;;;;25.60;12.48;;;-5.50;99.90;;;;;;4994793;28;20544;-85
2022/03/01 03:43:54;;;;;;;29.90;12.65;;;-5.70;99.90;;;;;;5004037;28;20037;-87
2022/03/01 03:46:20;;;;;;;24.23;11.18;;;-5.60;99.90;;;;;;4998143;28;20030;-86
2022/03/01 03:48:47;;;;;;;29.30;12.23;;;-5.70;99.90;;;;;;4998284;28;20026;-86
2022/03/01 03:51:13;;;;;;;28.92;12.85;;;-5.60;99.90;;;;;;4992156;28;20030;-88
2022/03/01 03:53:38;;;;;;;23.23;9.57;;;-5.50;99.90;;;;;;4995461;28;20390;-86
2022/03/01 03:56:04;;;;;;;19.05;8.15;;;-5.30;99.90;;;;;;4997619;28;20046;-86
2022/03/01 03:58:30;;;;;;;26.00;9.43;;;-5.30;99.90;;;;;;5001419;28;20030;-84
2022/03/01 04:00:56;;;;;;;17.60;8.85;;;-5.30;99.90;;;;;;5002660;28;20030;-85
2022/03/01 04:03:23;;;;;;;28.70;10.48;;;-5.30;99.90;;;;;;4995011;28;20105;-87
2022/03/01 04:05:50;;;;;;;22.45;9.98;;;-5.30;99.90;;;;;;4996746;28;20022;-89
2022/03/01 04:08:16;;;;;;;23.05;9.70;;;-5.30;99.90;;;;;;4996758;28;20031;-86
2022/03/01 04:10:43;;;;;;;22.88;10.23;;;-5.40;99.90;;;;;;4989812;28;20030;-86
2022/03/01 04:13:08;;;;;;;22.15;10.60;;;-5.40;99.90;;;;;;4997512;28;20113;-87
2022/03/01 04:15:34;;;;;;;24.35;9.27;;;-5.40;99.90;;;;;;4987449;28;20106;-87
2022/03/01 04:18:00;;;;;;;30.02;11.45;;;-5.50;99.90;;;;;;4987877;28;20121;-88
2022/03/01 04:20:25;;;;;;;21.27;8.85;;;-5.60;99.90;;;;;;4994123;28;20106;-88
2022/03/01 04:22:51;;;;;;;19.35;8.88;;;-5.70;99.90;;;;;;5003246;28;20046;-88
2022/03/01 04:25:17;;;;;;;22.23;9.95;;;-5.70;99.90;;;;;;4988647;28;20030;-85
2022/03/01 04:27:42;;;;;;;21.83;9.45;;;-5.70;99.90;;;;;;4995370;28;20042;-89
2022/03/01 04:30:11;;;;;;;22.80;9.43;;;-5.80;99.90;;;;;;4992234;28;20044;-84
2022/03/01 04:32:37;;;;;;;22.10;8.88;;;-5.70;99.90;;;;;;5005736;28;20703;-86
2022/03/01 04:35:04;;;;;;;23.65;9.25;;;-5.80;99.90;;;;;;5001299;28;20033;-80
2022/03/01 04:37:30;;;;;;;23.10;8.18;;;-5.80;99.90;;;;;;4998202;28;20034;-82
2022/03/01 04:39:56;;;;;;;17.77;8.15;;;-5.80;99.90;;;;;;5000833;28;20034;-82
2022/03/01 04:42:22;;;;;;;20.50;9.18;;;-5.80;99.90;;;;;;5001842;28;20367;-86
2022/03/01 04:44:47;;;;;;;22.25;10.30;;;-5.60;99.90;;;;;;4999442;28;20034;-86
2022/03/01 04:47:15;;;;;;;24.48;10.38;;;-5.60;99.90;;;;;;4998394;28;20034;-82
2022/03/01 04:49:41;;;;;;;24.40;9.88;;;-5.60;99.90;;;;;;4990337;28;20023;-84
2022/03/01 04:52:07;;;;;;;25.58;10.98;;;-5.60;99.90;;;;;;4990747;28;20564;-89
2022/03/01 04:54:33;;;;;;;27.08;9.98;;;-5.70;99.90;;;;;;4996592;28;20496;-88
2022/03/01 04:56:59;;;;;;;26.05;10.77;;;-5.70;99.90;;;;;;4999819;28;20030;-81
2022/03/01 04:59:25;;;;;;;21.42;9.70;;;-5.60;99.90;;;;;;4995473;28;20050;-85
2022/03/01 05:01:51;;;;;;;23.80;9.38;;;-5.70;99.90;;;;;;4981771;28;20030;-86
2022/03/01 05:04:16;;;;;;;21.75;9.63;;;-5.80;99.90;;;;;;4990981;28;20038;-88
2022/03/01 05:06:42;;;;;;;26.63;11.20;;;-5.80;99.90;;;;;;4991578;28;20429;-87
2022/03/01 05:09:07;;;;;;;19.55;9.45;;;-5.90;99.90;;;;;;4991394;28;20038;-84
2022/03/01 05:11:33;;;;;;;20.90;9.00;;;-6.00;99.90;;;;;;4990039;28;20030;-89
2022/03/01 05:13:59;;;;;;;24.70;10.45;;;-6.00;99.90;;;;;;4989767;28;20093;-86
2022/03/01 05:16:25;;;;;;;23.98;9.00;;;-6.20;99.90;;;;;;4990149;28;20117;-86
2022/03/01 05:18:51;;;;;;;22.25;11.20;;;-6.10;99.90;;;;;;4991672;28;20126;-85
2022/03/01 05:21:16;;;;;;;24.77;10.15;;;-6.10;99.90;;;;;;4973865;28;20077;-86
2022/03/01 05:23:42;;;;;;;26.48;11.05;;;-5.90;99.90;;;;;;4991105;28;20035;-87
2022/03/01 05:26:08;;;;;;;25.88;8.93;;;-6.00;99.90;;;;;;4989947;28;20040;-85
2022/03/01 05:28:34;;;;;;;24.50;10.18;;;-5.80;99.90;;;;;;4991696;28;20026;-86
2022/03/01 05:30:59;;;;;;;22.90;10.63;;;-5.80;99.90;;;;;;4990710;28;20049;-89
2022/03/01 05:33:25;;;;;;;24.35;9.43;;;-5.80;99.90;;;;;;4991250;28;20388;-86
2022/03/01 05:35:50;;;;;;;25.83;9.35;;;-5.80;99.90;;;;;;4990157;28;20085;-85
2022/03/01 05:38:16;;;;;;;24.00;10.65;;;-5.90;99.90;;;;;;4989077;28;20035;-87
2022/03/01 05:40:42;;;;;;;22.33;11.63;;;-5.90;99.90;;;;;;4991112;28;20065;-86
2022/03/01 05:43:08;;;;;;;29.88;10.98;;;-6.00;99.90;;;;;;4991074;28;20046;-84
2022/03/01 05:45:34;;;;;;;24.35;8.98;;;-6.00;99.90;;;;;;4990617;28;20026;-83
2022/03/01 05:48:00;;;;;;;24.73;9.13;;;-6.00;99.90;;;;;;4989902;28;20041;-79
2022/03/01 05:50:27;;;;;;;20.52;9.27;;;-5.90;99.90;;;;;;4993448;28;20030;-85
2022/03/01 05:52:53;;;;;;;18.45;8.05;;;-5.90;99.90;;;;;;4990412;28;20496;-88
2022/03/01 05:55:19;;;;;;;33.63;11.80;;;-5.90;99.90;;;;;;4990685;28;20035;-84
2022/03/01 05:57:45;;;;;;;24.40;10.50;;;-5.80;99.90;;;;;;4990439;28;20030;-90
2022/03/01 06:00:13;;;;;;;18.55;8.30;;;-5.90;99.90;;;;;;4987333;28;20019;-80
2022/03/01 06:02:43;;;;;;;20.95;9.60;;;-5.80;99.90;;;;;;4989688;28;20089;-84
2022/03/01 06:05:11;;;;;;;26.00;10.80;;;-5.80;99.90;;;;;;4985349;28;20023;-85
2022/03/01 06:07:37;;;;;;;25.23;10.52;;;-5.80;99.90;;;;;;4973697;28;20042;-88
2022/03/01 06:10:04;;;;;;;26.60;10.50;;;-5.80;99.90;;;;;;4984274;28;20041;-83
2022/03/01 06:12:30;;;;;;;25.42;9.45;;;-5.70;99.90;;;;;;4989945;28;20042;-84
2022/03/01 06:14:55;;;;;;;21.17;8.77;;;-5.70;99.90;;;;;;4983678;28;20041;-88
2022/03/01 06:17:21;;;;;;;23.80;11.73;;;-5.80;99.90;;;;;;4990485;28;20042;-79
2022/03/01 06:19:46;;;;;;;25.38;9.55;;;-5.70;99.90;;;;;;4990462;28;20030;-82
2022/03/01 06:22:13;;;;;;;24.30;8.95;;;-5.80;99.90;;;;;;4988737;28;20393;-83
2022/03/01 06:24:41;;;;;;;22.83;9.18;;;-5.80;99.90;;;;;;4988510;28;20030;-80
2022/03/01 06:27:07;;;;;;;26.63;9.20;;;-5.80;99.90;;;;;;4988519;28;20045;-84
2022/03/01 06:29:35;;;;;;;22.88;9.48;;;-5.70;99.90;;;;;;4984490;28;20038;-85
2022/03/01 06:32:01;;;;;;;27.20;9.60;;;-5.70;99.90;;;;;;4985796;28;20718;-87
2022/03/01 06:34:27;;;;;;;26.50;10.35;;;-5.70;99.90;;;;;;4990380;28;20038;-82
2022/03/01 06:36:52;;;;;;;15.55;6.68;;;-5.70;99.90;;;;;;4989541;28;20041;-86
2022/03/01 06:39:18;;;;;;;29.08;9.70;;;-5.60;99.90;;;;;;4990032;28;20121;-83
2022/03/01 06:41:44;;;;;;;27.38;9.82;;;-5.50;99.90;;;;;;4989184;28;20120;-85
2022/03/01 06:44:09;;;;;;;25.20;9.80;;;-5.50;99.90;;;;;;4989051;28;20370;-86
2022/03/01 06:46:35;;;;;;;21.17;8.75;;;-5.50;99.90;;;;;;4986721;28;20066;-85
2022/03/01 06:49:01;;;;;;;23.83;9.27;;;-5.50;99.90;;;;;;4989017;28;20033;-86
2022/03/01 06:51:27;;;;;;;26.95;10.27;;;-5.40;99.90;;;;;;4987482;28;20042;-86
2022/03/01 06:53:53;;;;;;;28.00;11.23;;;-5.40;99.90;;;;;;4987911;28;20042;-85
2022/03/01 06:56:19;;;;;;;20.50;9.93;;;-5.30;99.90;;;;;;4981915;28;20031;-80
2022/03/01 06:58:45;;;;;;;24.38;9.38;;;-5.20;99.90;;;;;;4986421;28;20044;-83
2022/03/01 07:01:11;;;;;;;23.98;9.40;;;-5.20;99.90;;;;;;4989558;28;20069;-83
2022/03/01 07:03:39;;;;;;;20.50;8.38;;;-5.20;99.90;;;;;;4986067;28;20088;-86
2022/03/01 07:06:04;;;;;;;22.55;9.35;;;-5.20;99.90;;;;;;4988510;28;20030;-87
2022/03/01 07:08:30;;;;;;;23.70;9.43;;;-5.00;99.90;;;;;;4983987;28;20038;-83
2022/03/01 07:10:56;;;;;;;19.45;9.20;;;-4.90;99.90;;;;;;4985440;28;20033;-87
2022/03/01 07:13:22;;;;;;;21.65;9.55;;;-4.90;99.90;;;;;;4987053;28;20373;-85
2022/03/01 07:15:47;;;;;;;26.45;9.88;;;-4.70;99.90;;;;;;4987393;28;20489;-87
2022/03/01 07:18:13;;;;;;;23.90;10.82;;;-4.80;99.90;;;;;;4987023;28;20034;-87
2022/03/01 07:20:39;;;;;;;23.98;9.18;;;-4.70;99.90;;;;;;4985482;28;20034;-82
2022/03/01 07:23:05;;;;;;;22.35;8.70;;;-4.60;99.90;;;;;;4986521;28;20106;-86
2022/03/01 07:25:31;;;;;;;20.38;8.45;;;-4.50;99.90;;;;;;4987710;28;20117;-87
2022/03/01 07:27:57;;;;;;;22.90;8.93;;;-4.50;99.90;;;;;;4987989;28;20149;-85
2022/03/01 07:30:26;;;;;;;17.70;8.00;;;-4.40;99.90;;;;;;4987424;28;20042;-86
2022/03/01 07:32:56;;;;;;;24.67;10.93;;;-4.30;99.90;;;;;;4986595;28;20053;-88
2022/03/01 07:35:22;;;;;;;;;;;-4.30;99.90;;;;;;4985864;28;20061;-84
2022/03/01 07:37:50;;;;;;;24.40;8.13;;;-4.30;99.90;;;;;;4987787;28;19975;-86
2022/03/01 07:40:19;;;;;;;23.30;9.00;;;-4.30;99.90;;;;;;4987704;28;20056;-89
2022/03/01 07:42:44;;;;;;;25.10;9.95;;;-4.30;99.90;;;;;;4987517;28;20076;-87
2022/03/01 07:45:11;;;;;;;17.33;8.20;;;-4.20;99.90;;;;;;4987325;28;20031;-86
2022/03/01 07:47:37;;;;;;;22.70;10.00;;;-4.20;99.90;;;;;;5002539;28;20027;-87
2022/03/01 07:50:04;;;;;;;17.20;7.15;;;-4.10;99.90;;;;;;4981054;28;20077;-88
2022/03/01 07:52:30;;;;;;;23.08;10.23;;;-4.00;99.90;;;;;;4988272;28;20466;-88
2022/03/01 07:54:55;;;;;;;18.17;8.15;;;-3.80;99.90;;;;;;4988726;28;20045;-89
2022/03/01 07:57:45;;;;;;;17.38;7.60;;;-3.70;99.90;;;;;;4986873;28;20019;-88
2022/03/01 08:00:13;;;;;;;15.98;7.57;;;-3.60;99.90;;;;;;4987838;28;20045;-88
2022/03/01 08:02:40;;;;;;;22.05;8.75;;;-3.50;99.90;;;;;;4986603;28;20285;-87
2022/03/01 08:05:07;;;;;;;19.65;7.88;;;-3.40;99.90;;;;;;4986304;28;20026;-87
2022/03/01 08:07:33;;;;;;;17.48;8.00;;;-3.20;99.90;;;;;;4979678;28;20033;-84
2022/03/01 08:09:59;;;;;;;22.75;8.70;;;-3.20;99.00;;;;;;4989764;28;20386;-82
2022/03/01 08:12:25;;;;;;;16.23;8.55;;;-3.20;99.80;;;;;;4988774;28;20034;-88
2022/03/01 08:14:51;;;;;;;25.00;10.38;;;-3.20;99.30;;;;;;5003222;28;20027;-85
2022/03/01 08:17:17;;;;;;;17.58;8.05;;;-3.00;99.10;;;;;;4990780;28;20018;-87
2022/03/01 08:19:43;;;;;;;28.42;9.40;;;-3.00;99.20;;;;;;4990749;28;20034;-84
2022/03/01 08:22:09;;;;;;;23.50;11.85;;;-2.80;99.00;;;;;;4990932;28;20034;-88
2022/03/01 08:24:35;;;;;;;21.30;8.93;;;-2.50;97.10;;;;;;4989788;28;20026;-88
2022/03/01 08:27:00;;;;;;;13.00;5.97;;;-2.40;94.90;;;;;;4991271;28;20018;-88
2022/03/01 08:29:29;;;;;;;18.67;8.10;;;-2.30;95.20;;;;;;4988409;28;20117;-87
2022/03/01 08:31:55;;;;;;;13.05;7.10;;;-2.40;93.50;;;;;;4990772;28;20034;-90
2022/03/01 08:34:20;;;;;;;26.15;10.77;;;-2.30;93.40;;;;;;4991381;28;20030;-87
2022/03/01 08:36:46;;;;;;;15.43;8.02;;;-2.30;93.40;;;;;;4990706;28;20046;-86
2022/03/01 08:39:11;;;;;;;21.05;8.52;;;-2.20;93.80;;;;;;4971910;28;20038;-86
2022/03/01 08:41:37;;;;;;;19.27;8.48;;;-2.00;92.90;;;;;;4989480;28;20030;-88
2022/03/01 08:44:04;;;;;;;23.45;9.45;;;-1.80;93.30;;;;;;5003919;28;20038;-87
2022/03/01 08:46:29;;;;;;;19.77;8.52;;;-1.60;92.30;;;;;;4988228;28;20023;-87
2022/03/01 08:48:55;;;;;;;20.85;9.23;;;-1.40;91.90;;;;;;4990716;28;20538;-85
2022/03/01 08:51:22;;;;;;;23.33;9.93;;;-1.30;90.80;;;;;;4990946;28;20097;-88
2022/03/01 08:53:48;;;;;;;25.27;10.40;;;-1.40;90.00;;;;;;4989803;28;20125;-85
2022/03/01 08:56:15;;;;;;;21.60;8.93;;;-1.50;91.40;;;;;;4990435;28;20081;-89
2022/03/01 08:58:42;;;;;;;19.05;8.13;;;-1.40;90.80;;;;;;4990695;28;20112;-89
2022/03/01 09:01:07;;;;;;;17.70;8.80;;;-1.30;90.30;;;;;;4994765;28;20038;-88
2022/03/01 09:03:33;;;;;;;19.33;8.40;;;-1.00;90.30;;;;;;4988883;28;20046;-89
2022/03/01 09:05:59;;;;;;;19.67;9.50;;;-0.80;88.50;;;;;;4990928;28;21049;-87
2022/03/01 09:08:25;;;;;;;19.48;8.05;;;-0.70;87.80;;;;;;4996408;28;20044;-88
2022/03/01 09:10:51;;;;;;;18.27;8.90;;;-0.50;86.60;;;;;;4989591;28;20030;-90
2022/03/01 09:13:17;;;;;;;17.38;8.38;;;-0.60;83.00;;;;;;4989249;28;20445;-87
2022/03/01 09:15:43;;;;;;;17.73;7.93;;;-0.60;81.90;;;;;;4989618;28;20089;-88
2022/03/01 09:18:08;;;;;;;18.33;8.27;;;-0.60;82.80;;;;;;4984691;28;20042;-86
2022/03/01 09:20:35;;;;;;;16.55;7.95;;;-0.40;83.30;;;;;;4985834;28;20049;-87
2022/03/01 09:23:02;;;;;;;18.95;8.02;;;-0.40;82.40;;;;;;4990627;28;20031;-89
2022/03/01 09:25:28;;;;;;;17.20;8.45;;;-0.20;82.90;;;;;;4988101;28;20381;-88
2022/03/01 09:27:55;;;;;;;20.48;7.70;;;-0.10;80.00;;;;;;4993425;28;20041;-85
2022/03/01 09:30:21;;;;;;;21.95;9.60;;;0.10;80.80;;;;;;4991495;28;20026;-86
2022/03/01 09:32:47;;;;;;;20.30;10.07;;;0.20;79.90;;;;;;4996624;28;20034;-88
2022/03/01 09:35:13;;;;;;;21.27;9.50;;;0.30;80.20;;;;;;4991222;28;20066;-87
2022/03/01 09:37:41;;;;;;;20.55;9.15;;;0.30;78.60;;;;;;4994736;28;20040;-87
2022/03/01 09:40:14;;;;;;;16.35;6.53;;;0.30;77.70;;;;;;5008596;28;21633;-82
2022/03/01 09:42:41;;;;;;;17.08;8.93;;;0.40;77.80;;;;;;5006934;28;20029;-86
2022/03/01 09:45:07;;;;;;;17.85;8.73;;;0.60;77.40;;;;;;4995237;28;20121;-86
2022/03/01 09:47:33;;;;;;;14.75;6.55;;;0.70;74.60;;;;;;4996402;28;20145;-88
2022/03/01 09:50:06;;;;;;;19.50;9.15;;;0.60;75.70;;;;;;5002943;28;20030;-82
2022/03/01 09:52:32;;;;;;;21.70;8.05;;;0.70;75.80;;;;;;5000373;28;20040;-87
2022/03/01 09:54:58;;;;;;;19.02;8.68;;;1.00;77.00;;;;;;4998932;28;20042;-85
2022/03/01 09:57:23;;;;;;;15.48;7.30;;;1.00;73.50;;;;;;4993181;28;20034;-87
2022/03/01 09:59:49;;;;;;;19.27;8.07;;;0.80;73.40;;;;;;4991823;28;20019;-86
2022/03/01 10:02:15;;;;;;;22.02;9.25;;;1.00;73.20;;;;;;4987101;28;20037;-86
2022/03/01 10:04:50;;;;;;;22.15;9.40;;;0.80;73.20;;;;;;4991659;28;20180;-86
2022/03/01 10:07:22;;;;;;;16.10;7.65;;;1.00;75.30;;;;;;4994322;28;20022;-88
2022/03/01 10:09:48;;;;;;;22.05;8.70;;;1.20;72.80;;;;;;4994970;28;20076;-84
2022/03/01 10:12:21;;;;;;;19.73;8.63;;;1.40;74.70;;;;;;4990202;28;20374;-86
2022/03/01 10:14:59;;;;;;;20.00;9.70;;;1.50;72.00;;;;;;4997674;28;20045;-82
2022/03/01 10:17:32;;;;;;;14.80;7.90;;;1.50;71.30;;;;;;4992817;28;20045;-85
2022/03/01 10:20:08;;;;;;;19.13;9.70;;;1.40;70.60;;;;;;5001777;28;20037;-83
2022/03/01 10:22:36;;;;;;;20.83;7.78;;;1.30;72.90;;;;;;4993158;28;20022;-83
2022/03/01 10:25:04;;;;;;;25.23;9.50;;;1.50;73.80;;;;;;4996294;28;20033;-87
2022/03/01 10:27:30;;;;;;;18.88;8.75;;;1.70;72.30;;;;;;4993097;28;20026;-85
2022/03/01 10:29:56;;;;;;;20.52;8.38;;;1.70;70.90;;;;;;4988873;28;20027;-84
2022/03/01 10:32:22;;;;;;;16.92;8.93;;;1.60;70.90;;;;;;4989123;28;20037;-86
2022/03/01 10:35:09;;;;;;;16.70;9.32;;;1.70;70.80;;;;;;4987060;28;20362;-84
2022/03/01 10:37:59;;;;;;;17.67;8.85;;;1.80;71.70;;;;;;4985941;28;20033;-83
2022/03/01 10:40:31;;;;;;;22.05;8.27;;;1.80;71.40;;;;;;4985788;28;20871;-85
2022/03/01 10:43:09;;;;;;;18.85;8.43;;;1.90;70.80;;;;;;4984705;28;20397;-85
2022/03/01 10:45:47;;;;;;;15.93;8.68;;;1.90;69.80;;;;;;4988047;28;20127;-86
2022/03/01 10:48:27;;;;;;;14.23;8.40;;;1.90;69.40;;;;;;4990838;28;20108;-85
2022/03/01 10:51:10;;;;;;;20.25;9.45;;;2.00;69.20;;;;;;4990102;28;20022;-84
2022/03/01 10:53:38;;;;;;;19.88;7.88;;;2.10;69.80;;;;;;4984149;28;20019;-88
2022/03/01 10:56:06;;;;;;;16.05;8.27;;;2.10;67.40;;;;;;4986570;28;20491;-85
2022/03/01 10:58:32;;;;;;;15.93;6.72;;;2.40;69.00;;;;;;4983227;28;20137;-88
2022/03/01 11:00:59;;;;;;;18.52;9.10;;;2.40;66.40;;;;;;4986380;28;20050;-82
2022/03/01 11:03:25;;;;;;;16.08;8.82;;;2.50;66.70;;;;;;4987948;28;20317;-84
2022/03/01 11:05:55;;;;;;;15.75;9.32;;;2.60;67.10;;;;;;4999174;28;20348;-84
2022/03/01 11:08:41;;;;;;;17.35;7.57;;;2.60;65.90;;;;;;4983398;28;20033;-87
2022/03/01 11:11:10;;;;;;;19.98;9.02;;;2.60;66.70;;;;;;4985394;28;20026;-83
2022/03/01 11:13:40;;;;;;;17.60;8.90;;;2.80;65.50;;;;;;4987559;28;20036;-85
2022/03/01 11:16:22;;;;;;;18.75;9.40;;;2.90;65.50;;;;;;4987593;28;20026;-80
2022/03/01 11:19:34;;;;;;;17.98;9.90;;;3.00;65.80;;;;;;4987565;28;20240;-82
2022/03/01 11:22:00;;;;;;;15.77;8.10;;;2.90;63.40;;;;;;4985480;28;20185;-85
2022/03/01 11:24:27;;;;;;;15.73;8.25;;;3.00;64.40;;;;;;5002513;28;20026;-85
2022/03/01 11:26:52;;;;;;;18.60;8.43;;;3.30;64.50;;;;;;4984242;28;20056;-81
2022/03/01 11:29:19;;;;;;;17.92;8.38;;;3.30;63.00;;;;;;4986995;28;20113;-83
2022/03/01 11:31:57;;;;;;;14.35;7.43;;;3.60;63.10;;;;;;4987767;28;20034;-81
2022/03/01 11:34:24;;;;;;;16.58;8.30;;;3.60;62.10;;;;;;4989737;28;20069;-83
2022/03/01 11:36:52;;;;;;;15.10;8.68;;;3.70;60.90;;;;;;4988491;28;20045;-86
2022/03/01 11:39:39;;;;;;;13.85;7.45;;;3.80;60.60;;;;;;4986855;28;20401;-84
2022/03/01 11:42:06;;;;;;;16.50;8.23;;;3.70;59.70;;;;;;4992326;28;20034;-84
2022/03/01 11:44:34;;;;;;;15.18;7.97;;;3.60;60.50;;;;;;4995658;28;20061;-82
2022/03/01 11:47:02;;;;;;;17.60;7.72;;;3.70;60.00;;;;;;4992727;28;20026;-82
2022/03/01 11:49:41;;;;;;;18.83;8.00;;;4.10;58.70;;;;;;4994938;28;20031;-82
2022/03/01 11:52:25;;;;;;;13.48;7.55;;;4.20;58.40;;;;;;4992445;28;20033;-82
2022/03/01 11:54:56;;;;;;;18.92;8.50;;;4.10;57.20;;;;;;4989895;28;20064;-81
2022/03/01 11:57:26;;;;;;;18.63;7.93;;;4.20;57.80;;;;;;4989443;28;20038;-82
2022/03/01 11:59:55;;;;;;;16.98;7.90;;;4.50;56.70;;;;;;4991534;28;20035;-85
2022/03/01 12:02:23;;;;;;;21.38;8.32;;;4.70;57.20;;;;;;4982893;28;20039;-86
2022/03/01 12:04:51;;;;;;;15.05;7.75;;;4.80;55.90;;;;;;4969298;28;20141;-85
2022/03/01 12:07:22;;;;;;;15.02;8.38;;;4.90;56.90;;;;;;4971459;28;20125;-84
2022/03/01 12:10:13;;;;;;;;;;;4.60;54.90;;;;;;4971551;28;20039;-83
2022/03/01 12:12:46;;;;;;;11.75;6.88;;;4.70;54.50;;;;;;4969638;28;19921;-85
2022/03/01 12:15:13;;;;;;;14.65;7.38;;;4.70;55.40;;;;;;4969419;28;20042;-86
2022/03/01 12:17:44;;;;;;;13.23;7.95;;;4.70;55.40;;;;;;4971818;28;20397;-86
2022/03/01 12:20:15;;;;;;;15.88;7.65;;;4.80;54.60;;;;;;4985186;28;20162;-85
2022/03/01 12:22:54;;;;;;;;;;;5.10;55.70;;;;;;4970654;28;20090;-86
2022/03/01 12:25:20;;;;;;;15.38;7.95;;;5.10;52.90;;;;;;4987037;28;20337;-87
2022/03/01 12:27:49;;;;;;;19.33;8.52;;;5.20;53.60;;;;;;4968823;28;20118;-84
2022/03/01 12:30:19;;;;;;;14.43;7.28;;;5.50;54.20;;;;;;4984471;28;20455;-83
2022/03/01 12:32:56;;;;;;;13.82;7.78;;;5.70;52.70;;;;;;4967885;28;20081;-83
2022/03/01 12:35:24;;;;;;;17.55;8.80;;;6.00;53.20;;;;;;4971194;28;20030;-83
2022/03/01 12:37:50;;;;;;;15.07;7.93;;;6.30;52.70;;;;;;4968204;28;20552;-81
2022/03/01 12:40:30;;;;;;;15.20;8.18;;;6.50;50.80;;;;;;4970143;28;20043;-81
2022/03/01 12:43:07;;;;;;;14.63;9.47;;;6.70;47.90;;;;;;4970200;28;20512;-80